.
WxDataArchive / Data Records for 2007-03-23
2007-03-22 March 2007 2007-03-24

Data Records for Friday, 23 March 2007

Time	Temp	Chill	HIndex	Humid	Dewpt	 Wind 	HiWind	WindDir	Rain 	Barom 
-----	----	-----	------	-----	-----	------	------	-------	-----	----- 
00:00	49.5	49.5	49.5	71	40.5	0	0	---	0.00	30.069 
00:05	49.2	49.2	49.2	74	41.3	0	0	---	0.01	30.075 
00:10	48.9	48.9	48.9	76	41.7	0	0	---	0.00	30.073 
00:15	48.8	48.8	48.8	77	41.9	0	0	---	0.01	30.072 
00:20	48.5	48.5	48.5	80	42.6	0	1	68	0.00	30.068 
00:25	48.0	48.0	48.0	82	42.8	0	1	68	0.01	30.066 
00:30	47.7	47.7	47.7	83	42.8	0	1	68	0.00	30.056 
00:35	47.4	47.4	47.4	81	41.9	0	1	68	0.01	30.054 
00:40	47.1	47.1	47.1	81	41.6	0	1	68	0.00	30.054 
00:45	47.1	47.1	47.1	82	41.9	0	0	---	0.01	30.055 
00:50	47.0	47.0	47.0	84	42.4	0	0	---	0.00	30.055 
00:55	47.0	47.0	47.0	85	42.7	0	0	---	0.00	30.054 
01:00	46.8	46.8	46.8	86	42.8	0	0	---	0.00	30.057 
01:05	46.7	46.7	46.7	87	43.0	0	0	---	0.00	30.057 
01:10	46.7	46.7	46.7	88	43.3	0	0	---	0.01	30.057 
01:15	46.5	46.5	46.5	88	43.1	0	0	---	0.00	30.056 
01:20	46.4	46.4	46.4	88	43.0	0	0	---	0.00	30.053 
01:25	46.2	46.2	46.2	88	42.8	0	1	68	0.00	30.048 
01:30	46.2	46.2	46.2	86	42.2	1	2	68	0.01	30.044 
01:35	46.2	46.2	46.2	85	41.9	1	2	68	0.01	30.040 
01:40	46.1	46.1	46.1	85	41.8	1	3	68	0.01	30.034 
01:45	46.0	46.0	46.0	86	42.0	0	2	68	0.00	30.038 
01:50	45.8	45.8	45.8	86	41.9	0	2	68	0.01	30.044 
01:55	45.7	45.7	45.7	85	41.5	0	2	68	0.00	30.052 
02:00	45.7	45.7	45.7	85	41.5	0	1	68	0.00	30.053 
02:05	45.7	45.7	45.7	85	41.5	0	1	68	0.00	30.054 
02:10	45.7	45.7	45.7	85	41.5	0	1	68	0.00	30.054 
02:15	45.7	45.7	45.7	85	41.5	1	2	68	0.01	30.053 
02:20	45.7	45.7	45.7	86	41.8	0	1	68	0.00	30.054 
02:25	45.7	45.7	45.7	86	41.8	1	2	68	0.00	30.045 
02:30	45.5	45.5	45.5	87	41.9	1	3	68	0.00	30.041 
02:35	45.5	45.5	45.5	87	41.9	1	3	68	0.00	30.040 
02:40	45.5	45.5	45.5	86	41.6	1	3	90	0.00	30.043 
02:45	45.5	45.5	45.5	86	41.6	1	3	90	0.00	30.048 
02:50	45.5	45.5	45.5	86	41.6	1	3	90	0.00	30.046 
02:55	45.5	45.5	45.5	86	41.6	0	2	90	0.01	30.054 
03:00	45.5	45.5	45.5	85	41.3	0	2	90	0.00	30.055 
03:05	45.5	45.5	45.5	86	41.6	0	0	---	0.01	30.056 
03:10	45.5	45.5	45.5	87	41.9	0	1	90	0.00	30.057 
03:15	45.5	45.5	45.5	88	42.2	0	1	90	0.01	30.055 
03:20	45.4	45.4	45.4	89	42.3	0	1	90	0.01	30.056 
03:25	45.4	45.4	45.4	89	42.3	0	0	---	0.00	30.056 
03:30	45.4	45.4	45.4	89	42.3	0	0	---	0.01	30.056 
03:35	45.2	45.2	45.2	90	42.4	0	0	---	0.01	30.055 
03:40	45.2	45.2	45.2	90	42.4	0	1	90	0.01	30.054 
03:45	45.2	45.2	45.2	90	42.4	0	2	90	0.01	30.048 
03:50	45.1	45.1	45.1	90	42.3	1	4	90	0.00	30.039 
03:55	44.8	44.8	44.8	88	41.5	2	4	90	0.01	30.037 
04:00	44.8	44.8	44.8	87	41.2	2	4	112	0.00	30.033 
04:05	44.8	44.8	44.8	87	41.2	1	2	90	0.01	30.030 
04:10	44.8	44.8	44.8	88	41.5	1	6	112	0.00	30.035 
04:15	44.6	44.6	44.6	88	41.3	1	6	112	0.01	30.033 
04:20	44.5	44.5	44.5	88	41.2	2	5	90	0.01	30.035 
04:25	44.3	44.3	44.3	88	41.0	2	5	90	0.00	30.038 
04:30	44.3	44.3	44.3	89	41.3	2	4	112	0.01	30.041 
04:35	44.2	44.2	44.2	89	41.2	2	6	112	0.00	30.043 
04:40	44.2	44.2	44.2	89	41.2	2	6	112	0.00	30.043 
04:45	44.1	44.1	44.1	87	40.5	3	5	90	0.01	30.044 
04:50	43.9	43.9	43.9	86	40.0	3	6	112	0.00	30.048 
04:55	43.8	43.8	43.8	85	39.6	3	6	90	0.00	30.046 
05:00	43.8	43.8	43.8	86	39.9	3	5	90	0.00	30.043 
05:05	43.8	43.8	43.8	87	40.2	3	7	90	0.00	30.042 
05:10	43.6	43.6	43.6	87	40.0	3	7	112	0.01	30.047 
05:15	43.6	43.6	43.6	87	40.0	3	7	90	0.00	30.046 
05:20	43.6	43.6	43.6	88	40.3	3	6	90	0.00	30.047 
05:25	43.6	43.6	43.6	89	40.6	3	6	112	0.01	30.050 
05:30	43.6	43.6	43.6	90	40.9	2	4	112	0.00	30.052 
05:35	43.8	43.8	43.8	90	41.1	2	4	90	0.00	30.055 
05:40	43.8	43.8	43.8	91	41.3	2	4	112	0.01	30.056 
05:45	43.8	43.8	43.8	91	41.3	1	5	112	0.01	30.056 
05:50	43.8	43.8	43.8	92	41.6	2	4	112	0.01	30.058 
05:55	43.8	43.8	43.8	92	41.6	2	3	112	0.00	30.060 
06:00	43.6	43.6	43.6	91	41.1	2	5	90	0.01	30.060 
06:05	43.5	43.5	43.5	92	41.3	3	6	112	0.01	30.067 
06:10	43.3	41.1	43.3	91	40.9	4	9	112	0.02	30.061 
06:15	43.2	43.2	43.2	90	40.5	3	7	112	0.00	30.065 
06:20	43.1	40.9	43.1	90	40.4	4	7	112	0.00	30.072 
06:25	43.1	43.1	43.1	91	40.7	3	5	112	0.01	30.073 
06:30	43.1	43.1	43.1	91	40.7	2	4	112	0.01	30.075 
06:35	43.1	43.1	43.1	92	40.9	1	5	112	0.00	30.080 
06:40	42.9	40.7	42.9	91	40.5	4	7	112	0.00	30.080 
06:45	42.8	42.8	42.8	91	40.4	3	6	90	0.00	30.078 
06:50	42.8	42.8	42.8	92	40.6	3	5	90	0.00	30.074 
06:55	42.8	42.8	42.8	92	40.6	3	6	90	0.01	30.073 
07:00	42.8	42.8	42.8	92	40.6	2	5	90	0.00	30.074 
07:05	42.8	42.8	42.8	92	40.6	3	6	112	0.00	30.077 
07:10	42.6	42.6	42.6	93	40.7	2	5	90	0.00	30.081 
07:15	42.6	42.6	42.6	92	40.4	3	7	112	0.00	30.083 
07:20	42.5	42.5	42.5	92	40.3	2	4	90	0.00	30.087 
07:25	42.3	42.3	42.3	92	40.1	3	6	112	0.01	30.077 
07:30	42.1	39.7	42.1	90	39.4	4	7	112	0.00	30.077 
07:35	41.8	39.4	41.8	89	38.8	4	7	112	0.00	30.075 
07:40	41.6	38.4	41.6	88	38.3	5	9	112	0.00	30.077 
07:45	41.8	41.8	41.8	89	38.8	2	5	90	0.00	30.086 
07:50	41.8	41.8	41.8	90	39.1	3	6	90	0.01	30.088 
07:55	41.8	41.8	41.8	90	39.1	2	6	90	0.00	30.099 
08:00	41.9	41.9	41.9	90	39.2	2	5	112	0.00	30.105 
08:05	41.9	41.9	41.9	90	39.2	2	7	112	0.00	30.108 
08:10	41.9	41.9	41.9	90	39.2	2	5	112	0.00	30.110 
08:15	41.9	41.9	41.9	91	39.5	2	6	112	0.00	30.110 
08:20	41.8	41.8	41.8	91	39.4	2	5	90	0.00	30.113 
08:25	41.8	41.8	41.8	90	39.1	2	5	90	0.00	30.118 
08:30	41.8	41.8	41.8	91	39.4	2	5	90	0.00	30.119 
08:35	41.8	41.8	41.8	91	39.4	1	4	90	0.00	30.123 
08:40	41.9	41.9	41.9	91	39.5	1	4	90	0.00	30.122 
08:45	41.9	41.9	41.9	91	39.5	1	3	90	0.00	30.124 
08:50	42.1	42.1	42.1	91	39.7	1	2	90	0.00	30.124 
08:55	42.1	42.1	42.1	91	39.7	1	2	90	0.00	30.114 
09:00	42.3	42.3	42.3	92	40.1	1	3	90	0.00	30.110 
09:05	42.5	42.5	42.5	92	40.3	2	3	90	0.00	30.111 
09:10	42.5	42.5	42.5	92	40.3	2	5	90	0.00	30.111 
09:15	42.5	42.5	42.5	92	40.3	2	4	112	0.00	30.111 
09:20	42.6	42.6	42.6	92	40.4	2	5	90	0.00	30.110 
09:25	42.8	42.8	42.8	92	40.6	2	3	112	0.00	30.104 
09:30	42.9	42.9	42.9	92	40.7	1	4	112	0.01	30.110 
09:35	43.1	43.1	43.1	92	40.9	1	3	112	0.00	30.115 
09:40	43.1	43.1	43.1	92	40.9	1	4	112	0.00	30.117 
09:45	43.1	43.1	43.1	92	40.9	2	4	90	0.00	30.120 
09:50	43.1	43.1	43.1	92	40.9	1	5	135	0.00	30.127 
09:55	43.2	43.2	43.2	92	41.0	1	4	90	0.00	30.129 
10:00	43.2	43.2	43.2	91	40.8	1	3	90	0.00	30.139 
10:05	43.3	43.3	43.3	91	40.9	1	3	22	0.00	30.139 
10:10	43.3	43.3	43.3	91	40.9	3	6	112	0.00	30.128 
10:15	43.5	41.4	43.5	91	41.0	4	6	90	0.00	30.125 
10:20	43.6	41.5	43.6	91	41.1	4	7	112	0.00	30.124 
10:25	43.8	43.8	43.8	91	41.3	3	6	90	0.00	30.123 
10:30	43.6	41.5	43.6	90	40.9	4	10	112	0.00	30.123 
10:35	43.8	43.8	43.8	90	41.1	3	10	112	0.00	30.119 
10:40	43.9	43.9	43.9	90	41.2	3	7	90	0.00	30.112 
10:45	43.9	41.1	43.9	90	41.2	5	10	112	0.00	30.111 
10:50	43.9	41.1	43.9	89	40.9	5	10	112	0.00	30.111 
10:55	44.2	44.2	44.2	90	41.5	2	8	112	0.00	30.119 
11:00	44.1	44.1	44.1	89	41.1	2	5	135	0.00	30.127 
11:05	44.1	44.1	44.1	89	41.1	2	4	22	0.00	30.126 
11:10	44.1	44.1	44.1	89	41.1	3	9	112	0.00	30.126 
11:15	44.1	44.1	44.1	88	40.8	3	9	112	0.00	30.125 
11:20	43.9	43.9	43.9	88	40.6	2	9	68	0.00	30.125 
11:25	44.1	42.1	44.1	89	41.1	4	10	112	0.00	30.114 
11:30	44.1	44.1	44.1	89	41.1	3	7	90	0.00	30.112 
11:35	44.1	44.1	44.1	88	40.8	3	6	90	0.00	30.115 
11:40	44.2	42.2	44.2	89	41.2	4	7	112	0.00	30.114 
11:45	44.2	44.2	44.2	89	41.2	3	6	112	0.00	30.115 
11:50	44.3	44.3	44.3	90	41.6	3	6	112	0.00	30.114 
11:55	44.3	44.3	44.3	90	41.6	3	6	90	0.01	30.114 
12:00	44.5	42.5	44.5	90	41.8	4	6	112	0.00	30.113 
12:05	44.6	42.6	44.6	89	41.6	4	9	112	0.00	30.111 
12:10	44.8	42.9	44.8	88	41.5	4	7	90	0.00	30.112 
12:15	44.9	43.0	44.9	87	41.3	4	7	90	0.00	30.113 
12:20	45.1	43.2	45.1	85	40.9	4	9	90	0.00	30.116 
12:25	45.4	43.6	45.4	85	41.2	4	10	112	0.00	30.116 
12:30	45.7	45.7	45.7	87	42.1	3	9	112	0.00	30.117 
12:35	45.7	43.2	45.7	83	40.8	5	8	112	0.00	30.121 
12:40	45.8	45.8	45.8	83	40.9	3	9	90	0.00	30.128 
12:45	46.1	44.4	46.1	83	41.2	4	10	112	0.00	30.128 
12:50	46.1	44.4	46.1	81	40.6	4	9	112	0.00	30.128 
12:55	46.2	44.5	46.2	81	40.7	4	11	112	0.00	30.126 
13:00	46.4	44.7	46.4	81	40.9	4	10	112	0.00	30.116 
13:05	46.5	44.8	46.5	80	40.7	4	9	112	0.00	30.117 
13:10	46.7	45.1	46.7	81	41.2	4	10	112	0.00	30.116 
13:15	46.8	45.2	46.8	80	41.0	4	12	112	0.00	30.114 
13:20	47.1	45.5	47.1	78	40.6	4	11	112	0.00	30.114 
13:25	47.1	45.5	47.1	78	40.6	4	8	90	0.00	30.112 
13:30	47.1	44.8	47.1	77	40.3	5	12	112	0.00	30.102 
13:35	47.0	44.7	47.0	77	40.2	5	14	90	0.00	30.099 
13:40	46.8	44.5	46.8	80	41.0	5	11	112	0.01	30.091 
13:45	46.7	44.3	46.7	80	40.9	5	11	90	0.00	30.096 
13:50	46.7	44.3	46.7	80	40.9	5	10	112	0.00	30.091 
13:55	46.7	43.7	46.7	80	40.9	6	12	112	0.00	30.088 
14:00	46.8	43.9	46.8	77	40.0	6	13	90	0.00	30.082 
14:05	46.8	43.9	46.8	77	40.0	6	13	90	0.00	30.082 
14:10	47.0	44.7	47.0	80	41.2	5	10	112	0.00	30.081 
14:15	47.3	45.8	47.3	81	41.8	4	10	90	0.00	30.081 
14:20	47.3	45.8	47.3	80	41.4	4	8	90	0.00	30.082 
14:25	47.3	45.8	47.3	78	40.8	4	12	90	0.00	30.094 
14:30	47.3	47.3	47.3	78	40.8	3	8	90	0.00	30.096 
14:35	47.4	45.9	47.4	79	41.2	4	7	90	0.00	30.095 
14:40	47.4	47.4	47.4	79	41.2	3	6	90	0.00	30.096 
14:45	47.3	47.3	47.3	81	41.8	3	6	112	0.00	30.097 
14:50	47.3	45.8	47.3	79	41.1	4	7	90	0.00	30.099 
14:55	47.1	47.1	47.1	80	41.3	3	7	90	0.00	30.103 
15:00	47.3	47.3	47.3	81	41.8	3	6	112	0.00	30.105 
15:05	47.1	45.5	47.1	81	41.6	4	11	90	0.00	30.102 
15:10	46.8	45.2	46.8	80	41.0	4	10	112	0.00	30.100 
15:15	46.8	46.8	46.8	80	41.0	3	7	90	0.00	30.102 
15:20	46.8	46.8	46.8	80	41.0	3	6	90	0.00	30.101 
15:25	46.8	46.8	46.8	82	41.6	3	7	90	0.00	30.100 
15:30	46.7	46.7	46.7	83	41.8	3	6	90	0.01	30.098 
15:35	46.5	44.8	46.5	83	41.6	4	7	112	0.00	30.099 
15:40	46.5	46.5	46.5	84	41.9	3	7	90	0.00	30.099 
15:45	46.4	46.4	46.4	85	42.1	3	6	90	0.00	30.099 
15:50	46.4	46.4	46.4	85	42.1	3	6	90	0.00	30.100 
15:55	46.4	44.7	46.4	85	42.1	4	9	90	0.00	30.099 
16:00	46.4	46.4	46.4	85	42.1	3	7	112	0.00	30.097 
16:05	46.4	44.7	46.4	86	42.4	4	11	112	0.00	30.094 
16:10	46.4	46.4	46.4	87	42.7	3	6	90	0.00	30.089 
16:15	46.4	44.7	46.4	87	42.7	4	7	90	0.00	30.084 
16:20	46.4	44.7	46.4	87	42.7	4	7	112	0.00	30.084 
16:25	46.4	44.7	46.4	88	43.0	4	9	90	0.00	30.081 
16:30	46.4	44.7	46.4	87	42.7	4	10	90	0.00	30.076 
16:35	46.4	46.4	46.4	88	43.0	3	9	90	0.00	30.079 
16:40	46.5	46.5	46.5	88	43.1	3	9	112	0.00	30.079 
16:45	46.7	46.7	46.7	89	43.6	3	7	112	0.00	30.076 
16:50	46.7	45.1	46.7	88	43.3	4	7	112	0.00	30.079 
16:55	46.5	44.8	46.5	88	43.1	4	10	90	0.00	30.080 
17:00	46.8	46.8	46.8	88	43.4	2	5	90	0.00	30.083 
17:05	46.8	46.8	46.8	88	43.4	2	6	90	0.00	30.084 
17:10	46.7	45.1	46.7	87	43.0	4	7	112	0.00	30.081 
17:15	46.5	44.1	46.5	87	42.8	5	9	90	0.00	30.070 
17:20	46.5	43.5	46.5	86	42.5	6	11	112	0.00	30.069 
17:25	46.5	44.1	46.5	86	42.5	5	9	112	0.00	30.076 
17:30	46.5	46.5	46.5	87	42.8	3	6	112	0.00	30.085 
17:35	46.7	46.7	46.7	86	42.7	3	8	112	0.00	30.092 
17:40	46.7	46.7	46.7	87	43.0	2	5	90	0.00	30.098 
17:45	46.5	46.5	46.5	87	42.8	3	6	112	0.00	30.098 
17:50	46.5	46.5	46.5	87	42.8	3	7	112	0.00	30.099 
17:55	46.4	46.4	46.4	87	42.7	3	6	112	0.00	30.100 
18:00	46.4	46.4	46.4	87	42.7	2	6	90	0.00	30.099 
18:05	46.2	46.2	46.2	87	42.5	3	6	112	0.00	30.101 
18:10	46.2	46.2	46.2	88	42.8	3	6	112	0.00	30.100 
18:15	46.2	46.2	46.2	88	42.8	3	6	112	0.00	30.099 
18:20	46.2	46.2	46.2	88	42.8	3	5	112	0.00	30.095 
18:25	46.2	46.2	46.2	89	43.1	2	4	90	0.00	30.100 
18:30	46.2	46.2	46.2	90	43.4	2	5	112	0.00	30.099 
18:35	46.2	46.2	46.2	90	43.4	2	6	90	0.00	30.100 
18:40	46.1	46.1	46.1	90	43.3	3	7	112	0.00	30.102 
18:45	46.0	46.0	46.0	91	43.5	2	4	112	0.00	30.103 
18:50	46.0	46.0	46.0	91	43.5	2	5	112	0.00	30.112 
18:55	45.8	45.8	45.8	91	43.3	2	5	112	0.00	30.116 
19:00	45.8	45.8	45.8	91	43.3	2	6	112	0.00	30.115 
19:05	45.7	45.7	45.7	91	43.2	3	6	112	0.00	30.114 
19:10	45.7	45.7	45.7	91	43.2	2	5	90	0.00	30.113 
19:15	45.7	45.7	45.7	91	43.2	2	5	90	0.00	30.112 
19:20	45.7	45.7	45.7	91	43.2	2	5	112	0.00	30.111 
19:25	45.7	45.7	45.7	91	43.2	2	4	112	0.00	30.113 
19:30	45.5	45.5	45.5	92	43.3	2	4	112	0.00	30.111 
19:35	45.5	45.5	45.5	92	43.3	2	5	112	0.00	30.111 
19:40	45.5	45.5	45.5	92	43.3	2	4	112	0.00	30.110 
19:45	45.5	45.5	45.5	92	43.3	3	6	90	0.00	30.107 
19:50	45.4	45.4	45.4	92	43.2	2	6	112	0.00	30.107 
19:55	45.4	45.4	45.4	92	43.2	2	5	112	0.00	30.109 
20:00	45.4	45.4	45.4	93	43.5	2	3	90	0.00	30.111 
20:05	45.4	45.4	45.4	93	43.5	2	4	90	0.00	30.113 
20:10	45.4	45.4	45.4	93	43.5	2	5	112	0.00	30.116 
20:15	45.4	45.4	45.4	93	43.5	2	4	90	0.00	30.116 
20:20	45.4	45.4	45.4	93	43.5	2	4	112	0.00	30.116 
20:25	45.4	45.4	45.4	93	43.5	3	6	90	0.00	30.117 
20:30	45.2	45.2	45.2	93	43.3	3	6	90	0.00	30.117 
20:35	45.2	45.2	45.2	93	43.3	2	6	90	0.00	30.119 
20:40	45.2	45.2	45.2	93	43.3	3	9	112	0.00	30.119 
20:45	45.2	45.2	45.2	93	43.3	2	4	135	0.00	30.119 
20:50	45.1	45.1	45.1	94	43.5	3	5	112	0.00	30.118 
20:55	45.1	45.1	45.1	94	43.5	2	4	112	0.00	30.118 
21:00	44.9	44.9	44.9	94	43.3	3	6	112	0.00	30.119 
21:05	44.9	44.9	44.9	95	43.6	2	4	90	0.00	30.117 
21:10	44.9	44.9	44.9	95	43.6	2	6	90	0.00	30.117 
21:15	44.8	44.8	44.8	95	43.5	3	6	90	0.00	30.116 
21:20	44.8	44.8	44.8	95	43.5	2	5	90	0.00	30.116 
21:25	44.6	44.6	44.6	95	43.3	3	7	90	0.00	30.118 
21:30	44.6	44.6	44.6	95	43.3	1	5	112	0.00	30.121 
21:35	44.6	44.6	44.6	95	43.3	2	5	112	0.00	30.124 
21:40	44.6	44.6	44.6	95	43.3	3	6	112	0.00	30.120 
21:45	44.5	44.5	44.5	95	43.2	3	6	90	0.00	30.119 
21:50	44.5	44.5	44.5	95	43.2	3	6	112	0.00	30.120 
21:55	44.5	44.5	44.5	95	43.2	3	6	112	0.00	30.119 
22:00	44.5	44.5	44.5	95	43.2	3	7	90	0.00	30.118 
22:05	44.5	44.5	44.5	96	43.4	3	6	90	0.00	30.116 
22:10	44.5	44.5	44.5	96	43.4	3	7	90	0.00	30.113 
22:15	44.3	44.3	44.3	96	43.2	3	7	112	0.00	30.115 
22:20	44.3	44.3	44.3	96	43.2	2	4	90	0.00	30.116 
22:25	44.3	44.3	44.3	96	43.2	3	6	90	0.00	30.115 
22:30	44.3	44.3	44.3	96	43.2	2	4	90	0.00	30.116 
22:35	44.3	44.3	44.3	96	43.2	2	4	112	0.00	30.116 
22:40	44.2	44.2	44.2	96	43.1	2	5	112	0.00	30.115 
22:45	44.2	44.2	44.2	96	43.1	2	4	112	0.00	30.114 
22:50	44.2	44.2	44.2	96	43.1	2	4	112	0.00	30.113 
22:55	44.3	44.3	44.3	96	43.2	2	6	90	0.01	30.111 
23:00	44.3	44.3	44.3	96	43.2	2	5	112	0.01	30.114 
23:05	44.3	44.3	44.3	96	43.2	2	4	112	0.01	30.108 
23:10	44.3	44.3	44.3	96	43.2	1	3	112	0.01	30.109 
23:15	44.3	44.3	44.3	96	43.2	2	4	90	0.00	30.106 
23:20	44.3	44.3	44.3	96	43.2	2	4	112	0.00	30.105 
23:25	44.3	44.3	44.3	97	43.5	1	3	112	0.00	30.106 
23:30	44.3	44.3	44.3	97	43.5	2	4	112	0.00	30.104 
23:35	44.3	44.3	44.3	97	43.5	2	3	90	0.00	30.107 
23:40	44.3	44.3	44.3	97	43.5	2	4	90	0.00	30.109 
23:45	44.5	44.5	44.5	97	43.7	1	3	112	0.00	30.106 
23:50	44.5	44.5	44.5	97	43.7	2	4	112	0.00	30.103 
23:55	44.5	44.5	44.5	97	43.7	1	3	112	0.00	30.104 

CoCoRaHS
IN-AL-39
A2 Web Hosting
Creative Commons License
GoDaddy
Look for:

loaded 2017-12-12 07:11:08 • last modified 2010-11-18 10:43:29
Privacy PolicyDisclaimer
• wx.awcolley.com is powered by PmWiki v.2002016 •
• all content (unless otherwise noted) © 2017 A W Colley